DOMJY EDNY-ED23
Flight info
| Callsign | DOMJY |
|---|---|
| Flight time | N/A |
| Altitude | 5000 |
| Route | / |
| Aircraft | DA40/L-V/N |
Departure
| Time | 2026-04-26 06:36 |
|---|---|
| Airport | Bodensee Airport Friedrichshafen (EDNY) |
Arrival
| Time | N/A |
|---|---|
| Airport | ED23 |
| Time | Latitude | Longitude | Altitude | Speed | Heading |
|---|---|---|---|---|---|
| 2026-04-26 06:27 | 47.66875 | 9.51300 | 1353 ft | 0 kts | 328° |
| 2026-04-26 06:31 | 47.66898 | 9.51308 | 1354 ft | 5 kts | 47° |
| 2026-04-26 06:31 | 47.66954 | 9.51345 | 1354 ft | 14 kts | 51° |
| 2026-04-26 06:31 | 47.67025 | 9.51372 | 1354 ft | 11 kts | 1° |
| 2026-04-26 06:31 | 47.67062 | 9.51445 | 1354 ft | 8 kts | 60° |
| 2026-04-26 06:32 | 47.67100 | 9.51540 | 1356 ft | 12 kts | 59° |
| 2026-04-26 06:32 | 47.67154 | 9.51671 | 1357 ft | 17 kts | 55° |
| 2026-04-26 06:32 | 47.67212 | 9.51826 | 1359 ft | 16 kts | 60° |
| 2026-04-26 06:32 | 47.67263 | 9.51961 | 1361 ft | 14 kts | 61° |
| 2026-04-26 06:33 | 47.67306 | 9.52072 | 1361 ft | 10 kts | 61° |
| 2026-04-26 06:33 | 47.67330 | 9.52105 | 1361 ft | 6 kts | 9° |
| 2026-04-26 06:33 | 47.67346 | 9.52112 | 1361 ft | 6 kts | 15° |
| 2026-04-26 06:33 | 47.67399 | 9.52125 | 1360 ft | 8 kts | 336° |
| 2026-04-26 06:34 | 47.67410 | 9.52116 | 1360 ft | 0 kts | 332° |
| 2026-04-26 06:34 | 47.67431 | 9.52099 | 1359 ft | 10 kts | 331° |
| 2026-04-26 06:35 | 47.67470 | 9.52019 | 1357 ft | 11 kts | 247° |
| 2026-04-26 06:35 | 47.67357 | 9.51730 | 1355 ft | 57 kts | 239° |
| 2026-04-26 06:35 | 47.67093 | 9.51078 | 1442 ft | 79 kts | 238° |
| 2026-04-26 06:35 | 47.66814 | 9.50428 | 1720 ft | 71 kts | 239° |
| 2026-04-26 06:36 | 47.66573 | 9.49869 | 1901 ft | 73 kts | 236° |
| 2026-04-26 06:36 | 47.66320 | 9.49258 | 1933 ft | 96 kts | 239° |
| 2026-04-26 06:36 | 47.65930 | 9.48277 | 1931 ft | 118 kts | 240° |
| 2026-04-26 06:36 | 47.65525 | 9.47254 | 2087 ft | 112 kts | 239° |
| 2026-04-26 06:37 | 47.65246 | 9.46423 | 2456 ft | 100 kts | 263° |
| 2026-04-26 06:37 | 47.65193 | 9.45369 | 2701 ft | 100 kts | 271° |
| 2026-04-26 06:37 | 47.65153 | 9.44531 | 2734 ft | 117 kts | 263° |
| 2026-04-26 06:37 | 47.64998 | 9.43316 | 2780 ft | 121 kts | 263° |
| 2026-04-26 06:38 | 47.64957 | 9.42473 | 2926 ft | 119 kts | 271° |
| 2026-04-26 06:38 | 47.64994 | 9.41268 | 3059 ft | 122 kts | 276° |
| 2026-04-26 06:38 | 47.64900 | 9.39869 | 2965 ft | 139 kts | 255° |
| 2026-04-26 06:38 | 47.64613 | 9.38462 | 2930 ft | 145 kts | 254° |
| 2026-04-26 06:39 | 47.64359 | 9.37229 | 2932 ft | 145 kts | 253° |
| 2026-04-26 06:39 | 47.64121 | 9.36068 | 2931 ft | 146 kts | 253° |
| 2026-04-26 06:39 | 47.63824 | 9.34623 | 2931 ft | 146 kts | 253° |
| 2026-04-26 06:39 | 47.63537 | 9.33175 | 2930 ft | 146 kts | 258° |
| 2026-04-26 06:40 | 47.63509 | 9.31682 | 2934 ft | 145 kts | 282° |
| 2026-04-26 06:40 | 47.63851 | 9.30302 | 2934 ft | 142 kts | 302° |
| 2026-04-26 06:40 | 47.64349 | 9.29031 | 2934 ft | 142 kts | 304° |
| 2026-04-26 06:40 | 47.64799 | 9.27740 | 2933 ft | 144 kts | 296° |
| 2026-04-26 06:41 | 47.65167 | 9.26368 | 2931 ft | 143 kts | 295° |
| 2026-04-26 06:41 | 47.65527 | 9.24997 | 2931 ft | 142 kts | 294° |
| 2026-04-26 06:41 | 47.65887 | 9.23636 | 2931 ft | 142 kts | 294° |
| 2026-04-26 06:41 | 47.66248 | 9.22271 | 2933 ft | 142 kts | 294° |
| 2026-04-26 06:42 | 47.66613 | 9.20904 | 2940 ft | 142 kts | 295° |
| 2026-04-26 06:42 | 47.66982 | 9.19531 | 2937 ft | 143 kts | 295° |
| 2026-04-26 06:42 | 47.67339 | 9.18178 | 2941 ft | 143 kts | 295° |
| 2026-04-26 06:42 | 47.67667 | 9.16869 | 2942 ft | 145 kts | 291° |
| 2026-04-26 06:43 | 47.67974 | 9.15437 | 2935 ft | 146 kts | 290° |
| 2026-04-26 06:43 | 47.68262 | 9.13985 | 2938 ft | 147 kts | 289° |
| 2026-04-26 06:43 | 47.68472 | 9.12875 | 2931 ft | 146 kts | 288° |
| 2026-04-26 06:43 | 47.68743 | 9.11453 | 3018 ft | 136 kts | 290° |
| 2026-04-26 06:44 | 47.68972 | 9.10319 | 3307 ft | 120 kts | 289° |
| 2026-04-26 06:44 | 47.69191 | 9.09189 | 3572 ft | 114 kts | 287° |
| 2026-04-26 06:44 | 47.69368 | 9.08074 | 3821 ft | 109 kts | 283° |
| 2026-04-26 06:44 | 47.69565 | 9.06901 | 3804 ft | 131 kts | 287° |
| 2026-04-26 06:45 | 47.69821 | 9.05500 | 3675 ft | 147 kts | 288° |
| 2026-04-26 06:45 | 47.70092 | 9.04020 | 3692 ft | 151 kts | 287° |
| 2026-04-26 06:45 | 47.70340 | 9.02652 | 3693 ft | 148 kts | 287° |
| 2026-04-26 06:45 | 47.70604 | 9.01185 | 3692 ft | 146 kts | 287° |
| 2026-04-26 06:46 | 47.70864 | 8.99726 | 3693 ft | 145 kts | 287° |
| 2026-04-26 06:46 | 47.71122 | 8.98277 | 3693 ft | 145 kts | 287° |
| 2026-04-26 06:46 | 47.71383 | 8.96825 | 3695 ft | 145 kts | 287° |
| 2026-04-26 06:46 | 47.71644 | 8.95369 | 3700 ft | 147 kts | 287° |
| 2026-04-26 06:47 | 47.71913 | 8.93884 | 3701 ft | 150 kts | 287° |
| 2026-04-26 06:47 | 47.72182 | 8.92393 | 3695 ft | 148 kts | 288° |
| 2026-04-26 06:47 | 47.72470 | 8.90931 | 3700 ft | 147 kts | 289° |
| 2026-04-26 06:47 | 47.72763 | 8.89468 | 3702 ft | 148 kts | 289° |
| 2026-04-26 06:48 | 47.73061 | 8.87987 | 3704 ft | 151 kts | 288° |
| 2026-04-26 06:48 | 47.73360 | 8.86503 | 3700 ft | 147 kts | 289° |
| 2026-04-26 06:48 | 47.73653 | 8.85042 | 3707 ft | 148 kts | 288° |
| 2026-04-26 06:48 | 47.73953 | 8.83575 | 3701 ft | 148 kts | 289° |
| 2026-04-26 06:49 | 47.74250 | 8.82122 | 3700 ft | 147 kts | 289° |
| 2026-04-26 06:49 | 47.74545 | 8.80680 | 3696 ft | 145 kts | 289° |
| 2026-04-26 06:49 | 47.74834 | 8.79278 | 3698 ft | 142 kts | 289° |
| 2026-04-26 06:49 | 47.75118 | 8.77868 | 3711 ft | 142 kts | 288° |
| 2026-04-26 06:50 | 47.75399 | 8.76474 | 3714 ft | 140 kts | 289° |
| 2026-04-26 06:50 | 47.75677 | 8.75112 | 3716 ft | 141 kts | 288° |
| 2026-04-26 06:50 | 47.75912 | 8.73950 | 3711 ft | 141 kts | 289° |
| 2026-04-26 06:50 | 47.76197 | 8.72552 | 3716 ft | 142 kts | 289° |
| 2026-04-26 06:51 | 47.76485 | 8.71134 | 3710 ft | 144 kts | 289° |
| 2026-04-26 06:51 | 47.77151 | 8.68363 | 3711 ft | 139 kts | 295° |
| 2026-04-26 06:51 | 47.77509 | 8.67048 | 3719 ft | 140 kts | 294° |
| 2026-04-26 06:52 | 47.77870 | 8.65701 | 3724 ft | 141 kts | 294° |
| 2026-04-26 06:52 | 47.78059 | 8.64979 | 3727 ft | 143 kts | 294° |
| 2026-04-26 06:52 | 47.78420 | 8.63583 | 3722 ft | 146 kts | 293° |
| 2026-04-26 06:52 | 47.78782 | 8.62174 | 3714 ft | 146 kts | 293° |
| 2026-04-26 06:53 | 47.79138 | 8.60783 | 3715 ft | 143 kts | 293° |
| 2026-04-26 06:53 | 47.79490 | 8.59406 | 3706 ft | 142 kts | 293° |
| 2026-04-26 06:53 | 47.79838 | 8.58051 | 3711 ft | 138 kts | 293° |
| 2026-04-26 06:53 | 47.80182 | 8.56713 | 3717 ft | 139 kts | 293° |
| 2026-04-26 06:54 | 47.80527 | 8.55359 | 3715 ft | 140 kts | 293° |
| 2026-04-26 06:54 | 47.80872 | 8.54010 | 3713 ft | 138 kts | 293° |
| 2026-04-26 06:54 | 47.81209 | 8.52693 | 3717 ft | 141 kts | 293° |
| 2026-04-26 06:54 | 47.81563 | 8.51311 | 3709 ft | 144 kts | 293° |
| 2026-04-26 06:55 | 47.81772 | 8.50488 | 3708 ft | 141 kts | 293° |
| 2026-04-26 06:55 | 47.82122 | 8.49118 | 3719 ft | 143 kts | 293° |
| 2026-04-26 06:55 | 47.82434 | 8.47896 | 3710 ft | 145 kts | 292° |
| 2026-04-26 06:55 | 47.82792 | 8.46490 | 3713 ft | 145 kts | 292° |
| 2026-04-26 06:56 | 47.83147 | 8.45088 | 3699 ft | 144 kts | 292° |
| 2026-04-26 06:56 | 47.83493 | 8.43735 | 3709 ft | 141 kts | 292° |
| 2026-04-26 06:56 | 47.83842 | 8.42366 | 3706 ft | 140 kts | 292° |
| 2026-04-26 06:56 | 47.84175 | 8.41038 | 3609 ft | 138 kts | 292° |
| 2026-04-26 06:57 | 47.84342 | 8.40341 | 3520 ft | 135 kts | 291° |
| 2026-04-26 06:57 | 47.84636 | 8.39041 | 3258 ft | 132 kts | 292° |
| 2026-04-26 06:57 | 47.84851 | 8.37767 | 3068 ft | 113 kts | 275° |
| 2026-04-26 06:57 | 47.84791 | 8.36687 | 2982 ft | 102 kts | 265° |
| 2026-04-26 06:58 | 47.84689 | 8.35695 | 2979 ft | 93 kts | 264° |
| 2026-04-26 06:58 | 47.84879 | 8.35069 | 3121 ft | 69 kts | 14° |
| 2026-04-26 06:58 | 47.85078 | 8.35821 | 2949 ft | 96 kts | 93° |
| 2026-04-26 06:58 | 47.85040 | 8.36478 | 2674 ft | 98 kts | 88° |
| 2026-04-26 06:59 | 47.85155 | 8.37114 | 2488 ft | 84 kts | 70° |
| 2026-04-26 06:59 | 47.85230 | 8.37492 | 2444 ft | 69 kts | 74° |
| 2026-04-26 06:59 | 47.85347 | 8.38141 | 2610 ft | 64 kts | 73° |
| 2026-04-26 06:59 | 47.85483 | 8.38818 | 2767 ft | 68 kts | 53° |
| 2026-04-26 07:00 | 47.85863 | 8.38684 | 2890 ft | 78 kts | 281° |
| 2026-04-26 07:00 | 47.85840 | 8.37751 | 3004 ft | 89 kts | 263° |
| 2026-04-26 07:00 | 47.85731 | 8.36740 | 3055 ft | 98 kts | 265° |
| 2026-04-26 07:00 | 47.85426 | 8.35946 | 3043 ft | 102 kts | 196° |
| 2026-04-26 07:01 | 47.84943 | 8.36163 | 2929 ft | 75 kts | 63° |
| 2026-04-26 07:01 | 47.85152 | 8.37016 | 2472 ft | 85 kts | 77° |
| 2026-04-26 07:01 | 47.85259 | 8.37699 | 2450 ft | 55 kts | 50° |
| 2026-04-26 07:01 | 47.85249 | 8.37485 | 2424 ft | 0 kts | 270° |
| 2026-04-26 07:02 | 47.85244 | 8.37534 | 2423 ft | 10 kts | 52° |
| 2026-04-26 07:02 | 47.85273 | 8.37556 | 2426 ft | 6 kts | 355° |
| 2026-04-26 07:02 | 47.85330 | 8.37528 | 2427 ft | 8 kts | 329° |
| 2026-04-26 07:02 | 47.85347 | 8.37493 | 2427 ft | 0 kts | 251° |
| 2026-04-26 07:03 | 47.85347 | 8.37491 | 2427 ft | 0 kts | 273° |
| 2026-04-26 07:08 | 47.85352 | 8.37492 | 2427 ft | 0 kts | 97° |
| 2026-04-26 07:08 | 47.85315 | 8.37543 | 2427 ft | 12 kts | 162° |
| 2026-04-26 07:08 | 47.85246 | 8.37558 | 2422 ft | 5 kts | 206° |
| 2026-04-26 07:08 | 47.85240 | 8.37547 | 2423 ft | 0 kts | 254° |
| 2026-04-26 07:09 | 47.85240 | 8.37544 | 2423 ft | 3 kts | 254° |
| 2026-04-26 07:09 | 47.85202 | 8.37342 | 2429 ft | 39 kts | 255° |
| 2026-04-26 07:09 | 47.85096 | 8.36759 | 2451 ft | 74 kts | 252° |
| 2026-04-26 07:09 | 47.84964 | 8.36033 | 2680 ft | 72 kts | 254° |
| 2026-04-26 07:10 | 47.85902 | 8.35098 | 3193 ft | 90 kts | 357° |
| 2026-04-26 07:11 | 47.86856 | 8.35535 | 3770 ft | 80 kts | 88° |
| 2026-04-26 07:11 | 47.86823 | 8.36591 | 3647 ft | 110 kts | 95° |
| 2026-04-26 07:11 | 47.86763 | 8.37764 | 3625 ft | 124 kts | 94° |
| 2026-04-26 07:11 | 47.86614 | 8.38987 | 3849 ft | 114 kts | 116° |
| 2026-04-26 07:12 | 47.86046 | 8.39294 | 4181 ft | 109 kts | 232° |
| 2026-04-26 07:12 | 47.85767 | 8.37954 | 3593 ft | 148 kts | 267° |
| 2026-04-26 07:12 | 47.85836 | 8.36552 | 3323 ft | 124 kts | 280° |
| 2026-04-26 07:12 | 47.85534 | 8.35655 | 3259 ft | 95 kts | 198° |
| 2026-04-26 07:13 | 47.85052 | 8.36054 | 2849 ft | 88 kts | 105° |
| 2026-04-26 07:13 | 47.85141 | 8.36965 | 2454 ft | 82 kts | 75° |
| 2026-04-26 07:13 | 47.85266 | 8.37669 | 2501 ft | 67 kts | 76° |
| 2026-04-26 07:13 | 47.85390 | 8.38333 | 2668 ft | 70 kts | 70° |
| 2026-04-26 07:14 | 47.85709 | 8.38722 | 2779 ft | 79 kts | 319° |
| 2026-04-26 07:14 | 47.85717 | 8.37839 | 2821 ft | 99 kts | 261° |
| 2026-04-26 07:14 | 47.85568 | 8.36847 | 2952 ft | 99 kts | 254° |
| 2026-04-26 07:40 | 47.85565 | 8.36834 | 2949 ft | 100 kts | 254° |
| 2026-04-26 07:41 | 47.85368 | 8.35720 | 2898 ft | 117 kts | 258° |
| 2026-04-26 07:41 | 47.85284 | 8.34557 | 3096 ft | 100 kts | 289° |
| 2026-04-26 07:41 | 47.85550 | 8.33653 | 3316 ft | 94 kts | 258° |
| 2026-04-26 07:41 | 47.85097 | 8.33637 | 3180 ft | 111 kts | 107° |
| 2026-04-26 07:42 | 47.84948 | 8.34802 | 2970 ft | 98 kts | 91° |
| 2026-04-26 07:42 | 47.84919 | 8.35698 | 2714 ft | 77 kts | 83° |
| 2026-04-26 07:42 | 47.85038 | 8.36407 | 2540 ft | 68 kts | 74° |
| 2026-04-26 07:42 | 47.85144 | 8.37021 | 2443 ft | 45 kts | 75° |
| 2026-04-26 07:43 | 47.85193 | 8.37286 | 2433 ft | 19 kts | 75° |
| 2026-04-26 07:43 | 47.85212 | 8.37412 | 2430 ft | 0 kts | 84° |
| 2026-04-26 07:43 | 47.85213 | 8.37426 | 2430 ft | 4 kts | 81° |
| 2026-04-26 07:43 | 47.85215 | 8.37440 | 2429 ft | 0 kts | 78° |
| 2026-04-26 07:44 | 47.85208 | 8.37453 | 2429 ft | 5 kts | 151° |
| 2026-04-26 07:44 | 47.85191 | 8.37463 | 2429 ft | 2 kts | 161° |
| 2026-04-26 07:44 | 47.85185 | 8.37471 | 2429 ft | 0 kts | 72° |
| 2026-04-26 07:45 | 47.85187 | 8.37482 | 2429 ft | 6 kts | 73° |
| 2026-04-26 07:45 | 47.85202 | 8.37547 | 2430 ft | 7 kts | 50° |
| 2026-04-26 07:45 | 47.85220 | 8.37557 | 2429 ft | 2 kts | 313° |
| 2026-04-26 07:46 | 47.85222 | 8.37551 | 2429 ft | 0 kts | 256° |
| 2026-04-26 07:48 | 47.85219 | 8.37533 | 2429 ft | 3 kts | 254° |
| 2026-04-26 07:48 | 47.85210 | 8.37487 | 2430 ft | 6 kts | 255° |
| 2026-04-26 07:48 | 47.85178 | 8.37318 | 2431 ft | 37 kts | 255° |
| 2026-04-26 07:48 | 47.85073 | 8.36753 | 2450 ft | 75 kts | 251° |
| 2026-04-26 07:49 | 47.84948 | 8.35975 | 2678 ft | 73 kts | 257° |
| 2026-04-26 07:49 | 47.85015 | 8.35336 | 2924 ft | 61 kts | 336° |
| 2026-04-26 07:49 | 47.85478 | 8.35098 | 3058 ft | 74 kts | 347° |
| 2026-04-26 07:50 | 47.86322 | 8.34881 | 3485 ft | 69 kts | 14° |
| 2026-04-26 07:50 | 47.86571 | 8.35399 | 3702 ft | 72 kts | 85° |
| 2026-04-26 07:50 | 47.86560 | 8.36217 | 3909 ft | 83 kts | 94° |
| 2026-04-26 07:50 | 47.86488 | 8.37177 | 4019 ft | 96 kts | 95° |
| 2026-04-26 07:51 | 47.86415 | 8.38071 | 4160 ft | 77 kts | 96° |
| 2026-04-26 07:51 | 47.86344 | 8.38771 | 4389 ft | 66 kts | 101° |
| 2026-04-26 07:51 | 47.86223 | 8.39423 | 4646 ft | 66 kts | 89° |
| 2026-04-26 07:51 | 47.86611 | 8.39879 | 4549 ft | 95 kts | 14° |
| 2026-04-26 07:52 | 47.87233 | 8.39640 | 4375 ft | 98 kts | 326° |
| 2026-04-26 07:52 | 47.87566 | 8.38786 | 4178 ft | 102 kts | 271° |
| 2026-04-26 07:52 | 47.87367 | 8.37753 | 3912 ft | 103 kts | 239° |
| 2026-04-26 07:52 | 47.86889 | 8.36969 | 3601 ft | 103 kts | 211° |
| 2026-04-26 07:53 | 47.86258 | 8.36462 | 3244 ft | 103 kts | 204° |
| 2026-04-26 07:53 | 47.85653 | 8.35979 | 3001 ft | 94 kts | 222° |
| 2026-04-26 07:53 | 47.85145 | 8.35683 | 2846 ft | 70 kts | 140° |
| 2026-04-26 07:53 | 47.85026 | 8.36351 | 2567 ft | 67 kts | 69° |
| 2026-04-26 07:54 | 47.85141 | 8.36979 | 2443 ft | 52 kts | 72° |
| 2026-04-26 07:54 | 47.85199 | 8.37293 | 2437 ft | 21 kts | 78° |